No particular awareness of the weather is required.    There are no Weather-warnings


Meteo18 Weather Cam more information Meteo18 Weather Cam


Thunder radar more information blitzortung!


Rain radar more information rain snow radar


Visit our other weather sites:

Template documentation
and downloads

And another site



Weather Underground History page Text

Daily Summary for July 22, 2017 Units:  English    Metric   Both
« Previous Day
Next Day »
Daily Weekly Monthly Yearly Custom
  High: Low: Average:
Temperature: 74.7 °F 56.1 °F 65.8 °F
Dew Point: 62.4 °F 52 °F 56.8 °F
Humidity: 91 % 57 % 74 %
Wind Speed: 17 mph 0 mph 5.4 mph
Wind Gust: 26 mph - -
Wind:- - SW
Pressure: 30.1 in 29.9 in -
Precipitation: 0.06 in    
Historical Graphs
 
 
Tabular Data for July 22, 2017
Time Temperature Dew Point Pressure Wind Wind Speed Wind Gust Humidity Rainfall Rate (Hourly)
00:02 68.4 °F 54 °F 29.9 in SW 3 mph 13 mph 60 % 0 in
00:12 68.2 °F 53.8 °F 29.9 in WNW 5 mph 11 mph 60 % 0 in
00:17 68.2 °F 53.8 °F 29.9 in SW 4 mph 11 mph 60 % 0 in
00:22 68 °F 54 °F 29.9 in West 5 mph 12 mph 61 % 0 in
00:27 67.8 °F 54 °F 29.9 in WSW 5 mph 12 mph 61 % 0 in
00:32 67.6 °F 54.1 °F 29.9 in West 3 mph 12 mph 62 % 0 in
00:37 67.5 °F 54 °F 29.9 in SW 7 mph 12 mph 62 % 0 in
00:42 67.5 °F 54 °F 29.9 in West 6 mph 10 mph 62 % 0 in
00:47 67.3 °F 53.8 °F 29.9 in West 3 mph 8 mph 62 % 0 in
00:52 66.9 °F 54 °F 29.9 in West 2 mph 8 mph 63 % 0 in
00:57 66.7 °F 53.8 °F 29.9 in WSW 3 mph 8 mph 63 % 0 in
01:02 66.7 °F 54.1 °F 29.9 in West 3 mph 8 mph 64 % 0 in
01:07 66.6 °F 54 °F 29.9 in WSW 3 mph 9 mph 64 % 0 in
01:12 66.6 °F 54 °F 29.9 in West 5 mph 9 mph 64 % 0 in
01:17 66.4 °F 54.3 °F 29.9 in SW 4 mph 7 mph 65 % 0 in
01:22 66.4 °F 54.3 °F 29.9 in SW 6 mph 7 mph 65 % 0 in
01:27 66.4 °F 54.3 °F 29.9 in West 3 mph 11 mph 65 % 0 in
01:32 66.2 °F 54.1 °F 29.9 in WSW 4 mph 11 mph 65 % 0 in
01:37 66.4 °F 54.3 °F 29.9 in SSW 4 mph 11 mph 65 % 0 in
01:42 66.4 °F 54.3 °F 29.9 in SW 4 mph 11 mph 65 % 0 in
01:47 66.4 °F 54.3 °F 29.9 in SW 2 mph 10 mph 65 % 0 in
01:52 66.4 °F 54.3 °F 29.9 in SSW 2 mph 10 mph 65 % 0 in
02:02 65.8 °F 54.1 °F 29.9 in SW 4 mph 6 mph 66 % 0 in
02:07 65.7 °F 54.3 °F 29.9 in SSW 3 mph 5 mph 67 % 0 in
02:12 65.5 °F 54.7 °F 29.9 in SW 7 mph 7 mph 68 % 0 in
02:17 65.5 °F 54.3 °F 29.9 in SW 11 mph 11 mph 67 % 0 in
02:22 65.3 °F 54.5 °F 29.9 in SW 4 mph 9 mph 68 % 0 in
02:27 64.9 °F 54.1 °F 29.9 in SSW 2 mph 11 mph 68 % 0 in
02:32 64.6 °F 53.8 °F 29.9 in SSE 2 mph 11 mph 68 % 0 in
02:37 63.9 °F 54 °F 29.9 in South 3 mph 7 mph 70 % 0 in
02:42 63.1 °F 53.6 °F 29.9 in SW 3 mph 7 mph 71 % 0 in
02:52 62.1 °F 53.2 °F 29.9 in South 1 mph 4 mph 73 % 0 in
02:57 61.7 °F 53.2 °F 29.9 in SSW 2 mph 3 mph 74 % 0 in
03:02 61.3 °F 53.4 °F 29.9 in SSW 2 mph 3 mph 75 % 0 in
03:12 61 °F 53.1 °F 29.9 in SSW 3 mph 3 mph 75 % 0 in
03:17 60.8 °F 53.2 °F 29.9 in SW 3 mph 4 mph 76 % 0 in
03:22 61 °F 53.4 °F 29.9 in SW 3 mph 4 mph 76 % 0 in
03:32 61.2 °F 53.2 °F 29.9 in South 4 mph 5 mph 75 % 0 in
03:37 61.2 °F 53.6 °F 29.9 in SSW 4 mph 5 mph 76 % 0 in
03:42 61.3 °F 53.8 °F 29.9 in South 3 mph 5 mph 76 % 0 in
03:47 61.3 °F 53.8 °F 29.9 in South 2 mph 4 mph 76 % 0 in
03:52 61 °F 53.4 °F 29.9 in SSW 3 mph 4 mph 76 % 0 in
03:57 61 °F 53.8 °F 29.9 in SSW 2 mph 5 mph 77 % 0 in
04:02 61 °F 53.8 °F 29.9 in SSW 2 mph 5 mph 77 % 0 in
04:12 61 °F 53.8 °F 29.9 in SSW 1 mph 5 mph 77 % 0 in
04:17 61 °F 53.8 °F 29.9 in Calm   4 mph 77 % 0 in
04:22 60.6 °F 53.4 °F 29.9 in Calm   4 mph 77 % 0 in
04:27 60.4 °F 53.6 °F 29.9 in SSW 1 mph 3 mph 78 % 0 in
04:32 60.4 °F 53.6 °F 29.9 in SSW 1 mph 3 mph 78 % 0 in
04:37 60.3 °F 53.4 °F 29.9 in Calm   3 mph 78 % 0 in
04:42 59.7 °F 53.2 °F 29.9 in Calm   3 mph 79 % 0 in
04:47 59.5 °F 53.4 °F 29.9 in Calm   2 mph 80 % 0 in
04:52 59.4 °F 53.2 °F 29.9 in South 1 mph 2 mph 80 % 0 in
05:02 58.8 °F 53.1 °F 29.9 in Calm   2 mph 81 % 0 in
05:12 58.3 °F 52.5 °F 29.9 in Calm   3 mph 81 % 0 in
05:17 57.7 °F 52.3 °F 29.9 in SSW 1 mph 1 mph 82 % 0 in
05:22 57.6 °F 52.5 °F 29.9 in Calm   1 mph 83 % 0 in
05:32 57.4 °F 52.5 °F 29.9 in Calm   2 mph 84 % 0 in
05:42 57 °F 52.2 °F 29.9 in Calm   2 mph 84 % 0 in
05:47 56.8 °F 52 °F 29.9 in Calm   2 mph 84 % 0 in
05:52 56.8 °F 52.3 °F 29.9 in Calm   2 mph 85 % 0 in
06:02 56.8 °F 52.7 °F 29.9 in Calm   1 mph 86 % 0 in
06:07 56.7 °F 52.5 °F 29.9 in Calm   1 mph 86 % 0 in
06:12 56.5 °F 52.3 °F 30 in Calm   1 mph 86 % 0 in
06:17 56.3 °F 52.2 °F 30 in SSW 1 mph 1 mph 86 % 0 in
06:22 56.1 °F 52.3 °F 30 in SW 2 mph 2 mph 87 % 0 in
06:32 56.3 °F 52.2 °F 29.9 in SSW 1 mph 2 mph 86 % 0 in
06:37 56.3 °F 52.2 °F 29.9 in Calm   2 mph 86 % 0 in
06:42 56.5 °F 52.3 °F 30 in Calm   2 mph 86 % 0 in
06:52 56.5 °F 52 °F 30 in Calm   1 mph 85 % 0 in
07:02 57.4 °F 53.2 °F 30 in Calm   1 mph 86 % 0 in
07:12 58.5 °F 53.6 °F 30 in Calm   2 mph 84 % 0 in
07:17 58.8 °F 53.6 °F 30 in Calm   2 mph 83 % 0 in
07:27 59.7 °F 54.1 °F 30 in SSW 1 mph 2 mph 82 % 0 in
07:32 59.9 °F 54.3 °F 30 in SSE 1 mph 2 mph 82 % 0 in
07:42 60.4 °F 54.9 °F 30 in South 4 mph 4 mph 82 % 0 in
07:47 60.6 °F 54.7 °F 30 in SSW 3 mph 5 mph 81 % 0 in
07:57 61.2 °F 54.9 °F 30 in South 8 mph 9 mph 80 % 0 in
08:02 61.3 °F 55 °F 30 in SSW 4 mph 9 mph 80 % 0 in
08:12 62.1 °F 55.4 °F 30 in SW 7 mph 12 mph 79 % 0 in
08:17 62.2 °F 55.6 °F 30 in SW 8 mph 12 mph 79 % 0 in
08:22 62.8 °F 55.8 °F 30 in SW 7 mph 12 mph 78 % 0 in
08:32 63.7 °F 55.9 °F 30 in SW 8 mph 13 mph 76 % 0 in
08:42 64 °F 55.6 °F 30 in South 9 mph 13 mph 74 % 0 in
08:47 64.2 °F 55.8 °F 30 in SW 12 mph 15 mph 74 % 0 in
08:52 64.6 °F 55.8 °F 30 in SW 12 mph 15 mph 73 % 0 in
09:02 64.9 °F 55.8 °F 30 in South 8 mph 15 mph 72 % 0 in
09:12 65.7 °F 55.6 °F 30 in West 7 mph 17 mph 70 % 0 in
09:17 65.8 °F 56.1 °F 30 in WSW 10 mph 17 mph 71 % 0 in
09:22 65.8 °F 55.8 °F 30 in West 5 mph 17 mph 70 % 0 in
09:32 66.4 °F 55.6 °F 30 in SW 9 mph 15 mph 68 % 0 in
09:42 66.9 °F 55.9 °F 30 in SW 10 mph 17 mph 68 % 0 in
09:47 66.7 °F 55.8 °F 30 in SW 12 mph 17 mph 68 % 0 in
09:52 66.7 °F 55 °F 30 in SSW 8 mph 17 mph 66 % 0 in
10:02 66.9 °F 55.2 °F 30 in WSW 9 mph 17 mph 66 % 0 in
10:12 67.6 °F 55.9 °F 30 in WNW 6 mph 17 mph 66 % 0 in
10:17 67.8 °F 55.2 °F 30 in SW 11 mph 14 mph 64 % 0 in
10:22 67.6 °F 55.4 °F 30 in WSW 7 mph 14 mph 65 % 0 in
10:32 68.9 °F 56.7 °F 30 in WSW 9 mph 15 mph 65 % 0 in
10:42 69.3 °F 56.1 °F 30 in WSW 8 mph 13 mph 63 % 0 in
10:52 69.3 °F 57 °F 30 in SSW 8 mph 16 mph 65 % 0 in
11:02 69.6 °F 56.8 °F 30 in SW 12 mph 17 mph 64 % 0 in
11:12 69.6 °F 56.5 °F 30 in SW 10 mph 17 mph 63 % 0 in
11:22 69.6 °F 56.5 °F 30 in SW 9 mph 17 mph 63 % 0 in
11:32 70.3 °F 56.3 °F 30 in SW 9 mph 15 mph 61 % 0 in
11:37 70.2 °F 56.5 °F 30 in WSW 6 mph 18 mph 62 % 0 in
11:42 70.3 °F 56.7 °F 30 in South 10 mph 18 mph 62 % 0 in
11:52 70.2 °F 56.5 °F 30 in WSW 5 mph 16 mph 62 % 0 in
12:02 70.2 °F 56.5 °F 30 in SW 5 mph 15 mph 62 % 0 in
12:07 71.1 °F 57.7 °F 30 in South 3 mph 16 mph 63 % 0 in
12:17 71.4 °F 56.8 °F 30 in South 9 mph 15 mph 60 % 0 in
12:22 72 °F 57.4 °F 30 in SSW 6 mph 15 mph 60 % 0 in
12:32 72.9 °F 57.7 °F 30 in SSE 6 mph 16 mph 59 % 0 in
12:37 72.5 °F 57.7 °F 30 in SW 9 mph 14 mph 60 % 0 in
12:42 72.7 °F 57 °F 30 in WSW 9 mph 14 mph 58 % 0 in
12:52 72.9 °F 57.7 °F 30 in SSW 3 mph 14 mph 59 % 0 in
12:57 72.7 °F 57 °F 30 in SSW 11 mph 14 mph 58 % 0 in
13:02 72.3 °F 57.2 °F 30 in SSW 10 mph 14 mph 59 % 0 in
13:12 72.1 °F 57.6 °F 30 in WSW 5 mph 17 mph 60 % 0 in
13:17 72.5 °F 57.7 °F 30 in WSW 8 mph 17 mph 60 % 0 in
13:27 72.9 °F 57.7 °F 29.9 in WSW 8 mph 14 mph 59 % 0 in
13:32 73.2 °F 58.5 °F 29.9 in WSW 6 mph 13 mph 60 % 0 in
13:42 73.9 °F 58.6 °F 29.9 in WSW 7 mph 14 mph 59 % 0 in
13:52 74.1 °F 57.9 °F 29.9 in SW 8 mph 17 mph 57 % 0 in
13:57 73.9 °F 58.3 °F 30 in SW 10 mph 15 mph 58 % 0 in
14:02 73.4 °F 57.7 °F 30 in SSW 4 mph 15 mph 58 % 0 in
14:07 73.2 °F 58.1 °F 30 in SW 10 mph 21 mph 59 % 0 in
14:12 72.9 °F 58.1 °F 30 in SW 16 mph 21 mph 60 % 0 in
14:17 72.9 °F 58.6 °F 30 in West 8 mph 16 mph 61 % 0 in
14:22 72.9 °F 58.1 °F 29.9 in WSW 4 mph 16 mph 60 % 0 in
14:32 72.9 °F 59 °F 30 in West 8 mph 16 mph 62 % 0 in
14:37 73 °F 58.8 °F 29.9 in West 5 mph 13 mph 61 % 0 in
14:42 73.4 °F 59.5 °F 30 in NW 2 mph 13 mph 62 % 0 in
14:47 73.8 °F 59.5 °F 30 in WNW 8 mph 10 mph 61 % 0 in
14:52 73.2 °F 59.4 °F 30 in WNW 4 mph 10 mph 62 % 0 in
14:57 72.3 °F 59 °F 30 in West 7 mph 14 mph 63 % 0 in
15:02 72 °F 59.2 °F 29.9 in NW 2 mph 14 mph 64 % 0 in
15:07 72.1 °F 59.7 °F 29.9 in West 5 mph 14 mph 65 % 0 in
15:12 72 °F 59.2 °F 29.9 in WSW 4 mph 14 mph 64 % 0 in
15:17 72.3 °F 59.5 °F 29.9 in WNW 3 mph 11 mph 64 % 0 in
15:22 73.4 °F 59.5 °F 29.9 in West 5 mph 11 mph 62 % 0 in
15:27 73.9 °F 60.1 °F 29.9 in SW 2 mph 11 mph 62 % 0 in
15:32 73.8 °F 59.5 °F 29.9 in WSW 2 mph 11 mph 61 % 0 in
15:37 74.5 °F 60.6 °F 29.9 in WSW 9 mph 10 mph 62 % 0 in
15:42 74.7 °F 59.9 °F 29.9 in WSW 14 mph 14 mph 60 % 0 in
15:52 73.9 °F 60.6 °F 29.9 in WNW 6 mph 15 mph 63 % 0 in
15:57 74.5 °F 60.1 °F 29.9 in WNW 4 mph 15 mph 61 % 0 in
16:02 74.1 °F 60.3 °F 29.9 in SSW 7 mph 15 mph 62 % 0 in
16:12 73.2 °F 59.9 °F 29.9 in West 3 mph 14 mph 63 % 0 in
16:22 73.2 °F 59.9 °F 29.9 in WNW 5 mph 14 mph 63 % 0 in
16:32 72.7 °F 59.7 °F 29.9 in WNW 7 mph 13 mph 64 % 0 in
16:37 72.5 °F 59.5 °F 29.9 in WNW 6 mph 16 mph 64 % 0 in
16:42 72.3 °F 59.9 °F 29.9 in West 6 mph 16 mph 65 % 0 in
16:47 72 °F 59.5 °F 29.9 in WSW 7 mph 17 mph 65 % 0 in
16:52 72 °F 59.5 °F 29.9 in West 9 mph 17 mph 65 % 0 in
16:57 71.4 °F 59 °F 30 in WNW 17 mph 19 mph 65 % 0 in
17:02 70.7 °F 59.2 °F 30 in West 8 mph 19 mph 67 % 0 in
17:07 70 °F 59 °F 30 in WSW 15 mph 23 mph 68 % 0 in
17:12 69.4 °F 59.2 °F 30 in WSW 9 mph 23 mph 70 % 0 in
17:17 68.5 °F 59.5 °F 30 in West 14 mph 23 mph 73 % 0 in
17:22 66.4 °F 59.4 °F 30 in West 17 mph 23 mph 78 % 0 in
17:32 63.9 °F 59.9 °F 30 in WSW 10 mph 26 mph 87 % 0 in
17:42 63 °F 59.9 °F 30 in WSW 11 mph 22 mph 90 % 0.03 in
17:47 62.8 °F 60.1 °F 30 in West 11 mph 23 mph 91 % 0.06 in
17:52 63 °F 60.3 °F 30 in WSW 11 mph 23 mph 91 % 0.06 in
17:57 63 °F 60.3 °F 30 in West 6 mph 20 mph 91 % 0.06 in
18:02 63.3 °F 60.6 °F 30 in West 8 mph 20 mph 91 % 0.06 in
18:07 64 °F 61 °F 30 in SW 5 mph 18 mph 90 % 0.06 in
18:12 64.8 °F 61.5 °F 30 in SSW 4 mph 18 mph 89 % 0.06 in
18:17 64.8 °F 61.2 °F 30 in West 5 mph 15 mph 88 % 0.06 in
18:22 64.9 °F 61.3 °F 30 in SW 9 mph 12 mph 88 % 0.06 in
18:27 65.1 °F 61.5 °F 29.9 in SW 8 mph 12 mph 88 % 0.06 in
18:32 65.1 °F 61.5 °F 30 in WSW 4 mph 11 mph 88 % 0.06 in
18:37 65.1 °F 61.5 °F 30 in WSW 3 mph 11 mph 88 % 0.06 in
18:42 65.3 °F 61.7 °F 30 in WSW 6 mph 11 mph 88 % 0.02 in
18:52 65.8 °F 62.4 °F 30 in SW 2 mph 10 mph 89 % 0 in
18:57 66 °F 61.3 °F 30 in SW 7 mph 12 mph 85 % 0 in
19:02 66.4 °F 62.1 °F 30 in WSW 4 mph 12 mph 86 % 0 in
19:12 66 °F 61.3 °F 30 in WSW 8 mph 14 mph 85 % 0 in
19:17 65.8 °F 61.5 °F 30 in WSW 5 mph 14 mph 86 % 0 in
19:22 66 °F 62.1 °F 30 in WSW 3 mph 14 mph 87 % 0 in
19:27 66 °F 62.1 °F 30 in SSW 7 mph 12 mph 87 % 0 in
19:32 66.2 °F 62.2 °F 30 in SW 3 mph 12 mph 87 % 0 in
19:37 66.4 °F 62.1 °F 30 in SW 9 mph 12 mph 86 % 0 in
19:42 66.4 °F 62.1 °F 30 in SW 5 mph 12 mph 86 % 0 in
19:47 66.4 °F 62.1 °F 30 in WSW 8 mph 15 mph 86 % 0 in
19:52 66.4 °F 62.1 °F 30 in SSW 10 mph 15 mph 86 % 0 in
19:57 66.4 °F 62.1 °F 30 in SSW 5 mph 15 mph 86 % 0 in
20:02 66.4 °F 61.7 °F 30 in SSW 8 mph 15 mph 85 % 0 in
20:07 66.6 °F 61.9 °F 30 in WSW 8 mph 12 mph 85 % 0 in
20:12 66.6 °F 61.5 °F 30 in SW 3 mph 12 mph 84 % 0 in
20:17 66.4 °F 60.8 °F 30 in WSW 9 mph 13 mph 82 % 0 in
20:22 66.4 °F 60.8 °F 30 in SSW 8 mph 13 mph 82 % 0 in
20:32 66.6 °F 61 °F 30 in SW 4 mph 13 mph 82 % 0 in
20:37 66.7 °F 60.8 °F 30 in SSW 5 mph 10 mph 81 % 0 in
20:42 66.9 °F 61 °F 30 in South 5 mph 10 mph 81 % 0 in
20:52 66.6 °F 60.6 °F 30 in SW 6 mph 10 mph 81 % 0 in
20:57 66.4 °F 60.4 °F 30 in SW 7 mph 11 mph 81 % 0 in
21:02 66 °F 60.1 °F 30 in SW 4 mph 11 mph 81 % 0 in
21:12 65.5 °F 59.9 °F 30 in SW 3 mph 12 mph 82 % 0 in
21:17 65.1 °F 59.5 °F 30 in SSW 5 mph 12 mph 82 % 0 in
21:22 64.9 °F 59.7 °F 30 in SSW 4 mph 12 mph 83 % 0 in
21:32 64.6 °F 59.7 °F 30 in SW 2 mph 11 mph 84 % 0 in
21:37 64.4 °F 59.5 °F 30 in SW 3 mph 9 mph 84 % 0 in
21:42 64.2 °F 59.4 °F 30 in SW 6 mph 9 mph 84 % 0 in
21:52 64.4 °F 58.8 °F 30 in WSW 10 mph 11 mph 82 % 0 in
21:57 64.6 °F 59 °F 30 in SSE 4 mph 11 mph 82 % 0 in
22:02 64.2 °F 58.3 °F 30 in WSW 6 mph 11 mph 81 % 0 in
22:12 64 °F 58.1 °F 30 in SW 5 mph 12 mph 81 % 0 in
22:17 63.9 °F 57.9 °F 30 in WSW 6 mph 10 mph 81 % 0 in
22:22 63.7 °F 57.7 °F 30 in SSW 6 mph 10 mph 81 % 0 in
22:27 63.3 °F 57 °F 30 in SW 9 mph 11 mph 80 % 0 in
22:32 63.1 °F 56.5 °F 30 in WSW 8 mph 11 mph 79 % 0 in
22:37 63 °F 55.9 °F 30 in WSW 6 mph 14 mph 78 % 0 in
22:42 62.8 °F 55.8 °F 30 in SW 8 mph 14 mph 78 % 0 in
22:47 62.8 °F 56.1 °F 30 in WSW 5 mph 12 mph 79 % 0 in
22:52 62.4 °F 55.8 °F 30 in SW 4 mph 12 mph 79 % 0 in
22:57 62.2 °F 55.9 °F 30 in WSW 5 mph 10 mph 80 % 0 in
23:02 62.2 °F 55.9 °F 30 in SW 4 mph 10 mph 80 % 0 in
23:07 62.1 °F 55.8 °F 30 in SW 3 mph 11 mph 80 % 0 in
23:12 61.9 °F 55.6 °F 30 in SSW 6 mph 11 mph 80 % 0 in
23:17 61.5 °F 55.2 °F 30 in SW 6 mph 11 mph 80 % 0 in
23:22 61.3 °F 55 °F 30 in SW 5 mph 11 mph 80 % 0 in
23:27 61.2 °F 55.2 °F 30 in SW 9 mph 11 mph 81 % 0 in
23:32 61.2 °F 55.2 °F 30 in SW 5 mph 11 mph 81 % 0 in
23:37 61 °F 55 °F 30 in SW 7 mph 11 mph 81 % 0 in
23:42 60.8 °F 54.9 °F 30.1 in SW 6 mph 11 mph 81 % 0 in
23:47 60.6 °F 54.7 °F 30.1 in SW 6 mph 11 mph 81 % 0 in
23:52 60.6 °F 54.7 °F 30.1 in SW 8 mph 11 mph 81 % 0 in
23:57 60.4 °F 54.5 °F 30.1 in SW 5 mph 11 mph 81 % 0 in
Meteo18
Compliments of Weather Underground - 4 mb

Script developed by  Jim McMurry - jmcmurry@mwt.net Adapted for the template by  Wim van der Kuil - Leuven-Template.eu

You find our weather info also at:

European Weather Network

Weather Underground

Equipment we use:

Weather-station
Davis Vue

Weather-program
Meteohub

Weather-server
Raspberry PI 2 B+

Provider
1 and 1

Davis Vue

Meteohub

Raspberry PI 2 B+

1 and 1